• Join FlightAware (Why Join?)
  • Login
  • US Flag 
06:54PM EDT


 

Airport Tracker/Info


-or-


 

Live Flight TrackerFlight Track Log ✈ N785JP ✈ 27-Jun-2013 ✈ KSYR - 5B2

Flight Track Log - Related Links

Times and Time Zones

All times are in EDT time to prevent confusion due to time zone crossing. See the N785JP flight status page for this flight to view local times or setup timezone preferences in your user account.

Time Position Orientation Groundspeed Altitude Reporting Facility
EDT Latitude Longitude Course Direction KTS MPH feet Rate Location/Type
05:52PM 43.1033 -76.0036 94° East 159 183 3,600  Level Boston Center
05:53PM 43.0967 -75.9464 99° East 159 183 5,200 1,500 Climbing Boston Center
05:54PM 43.0922 -75.8892 96° East 159 183 6,600 1,380 Climbing Boston Center
05:55PM 43.0878 -75.8292 96° East 159 183 8,000 1,380 Climbing Boston Center
05:56PM 43.0875 -75.7667 90° East 159 183 9,400 1,260 Climbing Boston Center
05:57PM 43.0975 -75.7075 77° East 159 183 10,600 780 Climbing Boston Center
05:58PM 43.1058 -75.6369 81° East 165 190 11,000 180 Climbing Boston Center
05:59PM 43.1142 -75.5661 81° East 180 207 11,000  Level Boston Center
06:00PM 43.1122 -75.4836 92° East 192 221 11,000 -120 Level Boston Center
06:01PM 43.1117 -75.4208 91° East 208 239 10,800 -840 Descending Boston Center
06:02PM 43.1056 -75.3353 96° East 237 273 9,600 -960 Descending Boston Center
06:03PM 43.1017 -75.2442 93° East 227 261 8,800 -780 Descending Boston Center
06:04PM 43.0992 -75.1672 93° East 218 251 8,100 -660 Descending Boston Center
06:05PM 43.0969 -75.0875 92° East 215 247 7,700 -420 Descending Boston Center
06:06PM 43.0947 -75.0078 92° East 206 237 7,400 -360 Descending Boston Center
06:07PM 43.0936 -74.9650 92° East 215 247 7,200 -300 Descending Boston Center
06:07PM 43.0903 -74.9194 96° East 216 249 7,100 -180 Descending Boston Center
06:08PM 43.0878 -74.8397 92° East 216 249 7,000 -60 Descending Boston Center
06:09PM 43.0856 -74.7569 92° East 216 249 7,000  Level Boston Center
06:10PM 43.0808 -74.6689 94° East 216 249 7,000  Level Boston Center
06:11PM 43.0786 -74.5806 92° East 219 252 7,000 -120 Level Boston Center
06:12PM 43.0758 -74.5008 93° East 223 257 6,800 -480 Descending Boston Center
06:13PM 43.0731 -74.4128 92° East 232 267 6,200 -660 Descending Boston Center
06:14PM 43.0706 -74.3244 92° East 232 267 5,500 -720 Descending Boston Center
06:15PM 43.0678 -74.2419 93° East 220 253 4,800 -720 Descending Boston Center
06:16PM 43.0628 -74.1567 95° East 218 251 4,100 -480 Descending Boston Center
06:17PM 43.0578 -74.0656 94° East 219 252 3,800 1,380 Descending Boston Center
06:18PM 43.0525 -73.9886 95° East 219 252 7,000 1,560 Climbing Boston Center
06:19PM 43.0494 -73.9089 93° East 219 252 7,000  Level Boston Center
06:21PM 43.0507 -73.8616 90° East  Level Estimated
06:28PM 43.0507 -73.8616 90° East  Level Estimated
06:29PM 43.0507 -73.8616 90° East  Level Estimated
06:30PM 43.0507 -73.8616 90° East  Level Estimated
06:31PM 43.0507 -73.8616 90° East  Level Estimated
06:32PM 43.0507 -73.8616 90° East  Level Estimated
06:33PM 43.0507 -73.8616 90° East  Level Estimated
06:34PM 43.0507 -73.8616 90° East  Level Estimated
06:35PM 43.0507 -73.8616 90° East  Level Estimated
06:36PM 43.0507 -73.8616 90° East  Level Estimated